Rome, Illinois
Current Conditions -  °F | °C
As of 4:35 AM on Saturday 22 Nov 2014 (Local Time) from KC75 Reporting Station
Overcast Overcast  
Wind Chill: 32°   Ceiling: 1200
Heat Index: 39°   Visibility: 7mi
Dew Point: 35°   Wind: 10mph
Humidity: 87%   Direction: 220°SW
Pressure: 30.05"   Gusts: 16mph
Location:  40.88°N, 89.5°W
Report Text: KC75 221035Z AUTO 22009G14KT 7SM OVC012 04/02 A3005 RMK AO2 T00380018
Loading
Personal Weather Stations






























Interactive Weather Map New forecast layout! Learn more

10-Day Weather Forecast

Advertisements
Track Severe Weather on mobile